createdAt,value
2022-08-12T00:01:05.517Z,6.25
2022-08-12T00:03:52.469Z,5.45
2022-08-12T00:06:41.267Z,6.55
2022-08-12T00:09:27.002Z,5.80
2022-08-12T00:12:14.669Z,5.82
2022-08-12T00:15:02.805Z,5.32
2022-08-12T00:17:48.752Z,6.20
2022-08-12T00:20:34.629Z,5.70
2022-08-12T00:23:20.857Z,6.10
2022-08-12T00:26:21.298Z,5.82
2022-08-12T00:29:11.493Z,5.85
2022-08-12T00:32:00.401Z,5.55
2022-08-12T00:34:49.289Z,6.00
2022-08-12T00:37:37.457Z,6.10
2022-08-12T00:40:30.105Z,6.40
2022-08-12T00:42:59.824Z,6.25
2022-08-12T00:45:47.446Z,5.90
2022-08-12T00:48:15.391Z,6.38
2022-08-12T00:50:43.270Z,4.60
2022-08-12T00:53:10.896Z,5.95
2022-08-12T00:55:46.445Z,5.28
2022-08-12T00:58:18.585Z,5.85
2022-08-12T01:00:45.758Z,5.53
2022-08-12T01:03:19.287Z,5.75
2022-08-12T01:06:07.713Z,5.90
2022-08-12T01:08:53.201Z,6.47
2022-08-12T01:11:29.530Z,5.57
2022-08-12T01:13:59.957Z,5.20
2022-08-12T01:16:27.635Z,7.03
2022-08-12T01:18:57.314Z,7.03
2022-08-12T01:21:49.699Z,6.32
2022-08-12T01:24:57.341Z,6.70
2022-08-12T01:27:27.286Z,6.72
2022-08-12T01:29:57.122Z,6.50
2022-08-12T01:32:27.522Z,6.57
2022-08-12T01:35:03.265Z,6.90
2022-08-12T01:37:32.999Z,6.57
2022-08-12T01:40:36.918Z,7.22
2022-08-12T01:42:51.242Z,7.10
2022-08-12T01:45:24.848Z,6.57
2022-08-12T01:48:29.557Z,6.25
2022-08-12T01:52:16.005Z,6.22
2022-08-12T01:54:10.903Z,6.15
2022-08-12T01:56:58.278Z,6.28
2022-08-12T01:59:59.747Z,5.82
2022-08-12T02:02:53.704Z,6.30
2022-08-12T02:06:22.286Z,6.35
2022-08-12T02:09:19.058Z,6.65
2022-08-12T02:11:59.876Z,7.15
2022-08-12T02:15:13.024Z,6.82
2022-08-12T02:17:57.094Z,6.72
2022-08-12T02:20:51.466Z,6.82
2022-08-12T02:23:26.527Z,6.75
2022-08-12T02:25:59.647Z,6.88
2022-08-12T02:28:27.230Z,6.80
2022-08-12T02:30:55.828Z,7.15
2022-08-12T02:33:23.195Z,6.53
2022-08-12T02:35:51.594Z,7.15
2022-08-12T02:38:21.688Z,6.60
2022-08-12T02:40:54.939Z,6.50
2022-08-12T02:43:37.918Z,6.88
2022-08-12T02:46:14.565Z,7.00
2022-08-12T02:48:51.215Z,7.28
2022-08-12T02:51:30.597Z,6.88
2022-08-12T02:54:04.292Z,7.15
2022-08-12T02:56:40.624Z,8.00
2022-08-12T02:59:17.852Z,7.72
2022-08-12T03:01:54.993Z,7.82
2022-08-12T03:04:43.112Z,7.05
2022-08-12T03:07:16.915Z,7.97
2022-08-12T03:12:49.853Z,8.00
2022-08-12T03:15:22.994Z,7.35
2022-08-12T03:18:26.360Z,7.90
2022-08-12T03:20:58.186Z,7.65
2022-08-12T03:23:29.888Z,9.15
2022-08-12T03:26:00.693Z,8.35
2022-08-12T03:28:49.612Z,7.70
2022-08-12T03:31:24.293Z,8.63
2022-08-12T03:34:01.402Z,7.28
2022-08-12T03:36:35.721Z,7.70
2022-08-12T03:39:36.084Z,9.05
2022-08-12T03:42:42.188Z,8.52
2022-08-12T03:46:00.596Z,8.43
2022-08-12T03:48:46.148Z,8.32
2022-08-12T03:51:31.439Z,8.63
2022-08-12T03:54:17.014Z,8.90
2022-08-12T03:57:02.458Z,7.38
2022-08-12T03:59:47.934Z,8.50
2022-08-12T04:02:16.976Z,8.95
2022-08-12T04:04:49.304Z,8.55
2022-08-12T04:07:21.119Z,8.70
2022-08-12T04:09:48.228Z,8.20
2022-08-12T04:12:34.150Z,7.28
2022-08-12T04:15:02.125Z,8.82
2022-08-12T04:17:30.547Z,8.98
2022-08-12T04:19:59.151Z,8.80
2022-08-12T04:22:29.815Z,9.02
2022-08-12T04:25:01.308Z,9.68
2022-08-12T04:27:31.132Z,9.13
2022-08-12T04:30:30.290Z,8.97
2022-08-12T04:32:48.811Z,7.82
2022-08-12T04:35:17.102Z,7.70
2022-08-12T04:37:59.746Z,8.40
2022-08-12T04:40:33.942Z,8.27
2022-08-12T04:43:01.480Z,9.77
2022-08-12T04:45:30.624Z,10.15
2022-08-12T04:47:57.969Z,9.02
2022-08-12T04:50:34.135Z,9.57
2022-08-12T04:53:08.712Z,8.35
2022-08-12T04:55:38.515Z,8.60
2022-08-12T04:58:07.172Z,8.38
2022-08-12T05:00:35.435Z,8.82
2022-08-12T05:03:02.610Z,9.05
2022-08-12T05:05:35.250Z,9.00
2022-08-12T05:08:04.055Z,8.40
2022-08-12T05:10:33.593Z,9.07
2022-08-12T05:13:08.226Z,8.55
2022-08-12T05:16:04.802Z,8.25
2022-08-12T05:18:25.994Z,7.75
2022-08-12T05:20:58.782Z,8.93
2022-08-12T05:23:26.016Z,8.00
2022-08-12T05:25:57.476Z,9.93
2022-08-12T05:28:27.037Z,8.60
2022-08-12T05:30:56.179Z,9.05
2022-08-12T05:33:26.665Z,8.52
2022-08-12T05:35:53.788Z,7.90
2022-08-12T05:38:39.076Z,7.00
2022-08-12T05:41:19.194Z,8.88
2022-08-12T05:43:59.475Z,8.52
2022-08-12T05:46:29.019Z,10.57
2022-08-12T05:48:56.638Z,9.50
2022-08-12T05:51:39.931Z,9.50
2022-08-12T05:54:09.172Z,9.98
2022-08-12T05:56:36.735Z,8.80
2022-08-12T05:59:09.300Z,10.52
2022-08-12T06:02:09.011Z,10.95
2022-08-12T06:04:24.071Z,11.07
2022-08-12T06:06:53.589Z,9.85
2022-08-12T06:09:22.599Z,10.15
2022-08-12T06:12:04.084Z,8.38
2022-08-12T06:14:36.937Z,9.38
2022-08-12T06:17:05.782Z,9.10
2022-08-12T06:20:27.658Z,9.60
2022-08-12T06:22:20.027Z,10.70
2022-08-12T06:24:49.767Z,10.10
2022-08-12T06:27:18.942Z,10.38
2022-08-12T06:30:07.998Z,9.82
2022-08-12T06:32:35.438Z,9.35
2022-08-12T06:35:23.205Z,8.75
2022-08-12T06:37:56.777Z,9.00
2022-08-12T06:40:43.734Z,8.25
2022-08-12T06:43:10.761Z,8.63
2022-08-12T06:45:45.951Z,8.57
2022-08-12T06:48:14.012Z,9.63
2022-08-12T06:50:42.354Z,8.02
2022-08-12T06:53:11.288Z,9.02
2022-08-12T06:55:56.677Z,9.35
2022-08-12T06:58:26.402Z,8.90
2022-08-12T07:00:54.639Z,7.80
2022-08-12T07:03:25.688Z,6.95
2022-08-12T07:05:53.759Z,7.40
2022-08-12T07:08:21.082Z,6.90
2022-08-12T07:10:58.990Z,6.43
2022-08-12T07:13:35.900Z,6.10
2022-08-12T07:16:22.790Z,5.50
2022-08-12T07:18:53.743Z,6.45
2022-08-12T07:21:20.755Z,5.75
2022-08-12T07:23:47.766Z,5.80
2022-08-12T07:26:21.374Z,5.15
2022-08-12T07:28:52.463Z,5.65
2022-08-12T07:31:19.620Z,5.53
2022-08-12T07:33:46.595Z,5.75
2022-08-12T07:36:14.621Z,5.40
2022-08-12T07:38:48.313Z,5.32
2022-08-12T07:41:24.051Z,5.20
2022-08-12T07:44:02.511Z,5.03
2022-08-12T07:46:39.190Z,4.80
2022-08-12T07:49:14.088Z,4.68
2022-08-12T07:51:42.739Z,4.60
2022-08-12T07:54:11.648Z,4.47
2022-08-12T07:56:43.105Z,4.57
2022-08-12T07:59:10.411Z,4.30
2022-08-12T08:01:38.494Z,4.28
2022-08-12T08:04:25.231Z,4.30
2022-08-12T08:06:53.786Z,3.60
2022-08-12T08:09:24.116Z,3.85
2022-08-12T08:12:19.101Z,4.25
2022-08-12T08:14:48.383Z,3.88
2022-08-12T08:17:17.784Z,3.72
2022-08-12T08:20:03.057Z,3.90
2022-08-12T08:22:46.178Z,3.55
2022-08-12T08:25:34.774Z,4.00
2022-08-12T08:28:04.555Z,3.90
2022-08-12T08:30:37.567Z,3.83
2022-08-12T08:33:23.011Z,4.00
2022-08-12T08:35:54.559Z,3.83
2022-08-12T08:38:32.177Z,3.75
2022-08-12T08:42:17.156Z,3.72
2022-08-12T08:44:12.110Z,3.90
2022-08-12T08:46:44.673Z,3.60
2022-08-12T08:49:13.342Z,3.67
2022-08-12T08:51:40.475Z,3.70
2022-08-12T08:54:08.698Z,3.60
2022-08-12T08:56:50.070Z,3.53
2022-08-12T08:59:19.459Z,3.17
2022-08-12T09:01:49.097Z,3.50
2022-08-12T09:05:08.524Z,3.80
2022-08-12T09:10:02.014Z,3.17
2022-08-12T09:12:55.168Z,3.35
2022-08-12T09:15:35.480Z,3.08
2022-08-12T09:18:08.784Z,3.67
2022-08-12T09:20:38.736Z,3.13
2022-08-12T09:23:58.736Z,3.72
2022-08-12T09:26:04.473Z,3.10
2022-08-12T09:28:37.317Z,3.28
2022-08-12T09:32:03.916Z,3.78
2022-08-12T09:34:29.290Z,3.42
2022-08-12T09:36:57.678Z,3.63
2022-08-12T09:40:08.125Z,3.08
2022-08-12T09:42:43.611Z,3.53
2022-08-12T09:45:23.047Z,2.90
2022-08-12T09:47:59.422Z,3.30
2022-08-12T09:50:27.824Z,3.15
2022-08-12T09:53:29.300Z,4.40
2022-08-12T09:56:58.683Z,3.42
2022-08-12T09:59:00.083Z,2.90
2022-08-12T10:01:35.507Z,3.35
2022-08-12T10:04:19.684Z,3.00
2022-08-12T10:06:55.046Z,2.90
2022-08-12T10:09:28.939Z,2.90
2022-08-12T10:12:33.380Z,2.92
2022-08-12T10:15:02.369Z,2.97
2022-08-12T10:17:29.793Z,3.22
2022-08-12T10:19:59.945Z,2.75
2022-08-12T10:22:36.486Z,3.28
2022-08-12T10:26:33.754Z,2.95
2022-08-12T10:28:38.327Z,3.10
2022-08-12T10:31:06.696Z,3.22
2022-08-12T10:34:04.903Z,3.10
2022-08-12T10:36:42.955Z,2.83
2022-08-12T10:40:00.355Z,3.00
2022-08-12T10:42:32.633Z,3.00
2022-08-12T10:45:06.721Z,2.55
2022-08-12T10:48:16.010Z,2.70
2022-08-12T10:50:33.883Z,2.78
2022-08-12T10:53:15.658Z,2.97
2022-08-12T10:55:48.963Z,2.45
2022-08-12T10:58:28.138Z,2.63
2022-08-12T11:01:50.374Z,2.70
2022-08-12T11:04:25.444Z,2.88
2022-08-12T11:07:08.650Z,2.97
2022-08-12T11:09:55.740Z,2.75
2022-08-12T11:12:54.933Z,2.95
2022-08-12T11:14:59.278Z,2.90
2022-08-12T11:17:34.140Z,2.50
2022-08-12T11:20:15.088Z,2.58
2022-08-12T11:22:42.555Z,2.40
2022-08-12T11:25:25.151Z,2.53
2022-08-12T11:28:13.704Z,2.60
2022-08-12T11:30:41.541Z,2.83
2022-08-12T11:33:12.366Z,2.80
2022-08-12T11:35:54.036Z,2.33
2022-08-12T11:38:24.590Z,3.08
2022-08-12T11:40:51.873Z,3.20
2022-08-12T11:43:20.446Z,2.75
2022-08-12T11:45:53.321Z,2.80
2022-08-12T11:48:26.685Z,2.70
2022-08-12T11:50:54.903Z,2.67
2022-08-12T11:53:58.781Z,2.80
2022-08-12T11:56:11.515Z,2.53
2022-08-12T12:00:31.852Z,2.60
2022-08-12T12:02:02.998Z,2.58
2022-08-12T12:04:17.047Z,2.45
2022-08-12T12:06:56.759Z,2.63
2022-08-12T12:09:51.856Z,2.00
2022-08-12T12:12:20.082Z,2.28
2022-08-12T12:14:55.058Z,2.50
2022-08-12T12:17:25.125Z,2.53
2022-08-12T12:19:53.756Z,2.28
2022-08-12T12:22:23.489Z,2.53
2022-08-12T12:24:59.001Z,2.60
2022-08-12T12:28:05.079Z,2.55
2022-08-12T12:30:38.589Z,2.80
2022-08-12T12:33:06.930Z,2.65
2022-08-12T12:36:18.977Z,2.58
2022-08-12T12:38:25.048Z,2.47
2022-08-12T12:40:52.708Z,2.40
2022-08-12T12:43:37.182Z,2.53
2022-08-12T12:46:07.360Z,2.30
2022-08-12T12:48:35.925Z,2.58
2022-08-12T12:51:48.400Z,2.30
2022-08-12T12:54:08.432Z,2.58
2022-08-12T12:56:42.876Z,2.40
2022-08-12T12:59:55.256Z,2.50
2022-08-12T13:02:07.664Z,2.63
2022-08-12T13:04:37.207Z,2.58
2022-08-12T13:07:05.773Z,2.55
2022-08-12T13:09:36.302Z,2.38
2022-08-12T13:12:09.021Z,2.67
2022-08-12T13:14:40.087Z,2.70
2022-08-12T13:17:11.353Z,2.38
2022-08-12T13:19:43.369Z,2.33
2022-08-12T13:22:19.584Z,2.28
2022-08-12T13:24:56.357Z,2.50
2022-08-12T13:27:34.898Z,2.10
2022-08-12T13:30:11.493Z,2.25
2022-08-12T13:32:57.357Z,2.33
2022-08-12T13:35:33.258Z,2.10
2022-08-12T13:38:13.505Z,2.20
2022-08-12T13:40:46.259Z,2.40
2022-08-12T13:43:41.534Z,2.45
2022-08-12T13:46:06.440Z,2.05
2022-08-12T13:48:33.339Z,2.50
2022-08-12T13:51:00.573Z,2.35
2022-08-12T13:53:40.263Z,2.10
2022-08-12T13:56:18.391Z,2.80
2022-08-12T13:58:52.635Z,2.40
2022-08-12T14:01:21.992Z,2.50
2022-08-12T14:03:50.984Z,2.30
2022-08-12T14:06:19.800Z,2.30
2022-08-12T14:08:49.790Z,2.20
2022-08-12T14:11:19.097Z,2.30
2022-08-12T14:14:05.472Z,2.35
2022-08-12T14:16:46.691Z,2.20
2022-08-12T14:19:24.250Z,2.25
2022-08-12T14:21:59.201Z,2.53
2022-08-12T14:24:34.817Z,2.30
2022-08-12T14:27:02.720Z,2.70
2022-08-12T14:29:38.252Z,2.50
2022-08-12T14:32:18.083Z,2.50
2022-08-12T14:34:49.085Z,2.35
2022-08-12T14:37:55.432Z,2.33
2022-08-12T14:40:05.196Z,2.55
2022-08-12T14:42:32.264Z,2.60
2022-08-12T14:45:01.852Z,2.20
2022-08-12T14:47:35.316Z,2.40
2022-08-12T14:50:37.328Z,2.13
2022-08-12T14:58:31.957Z,2.00
2022-08-12T15:01:19.746Z,2.28
2022-08-12T15:03:56.769Z,2.22
2022-08-12T15:06:39.031Z,2.00
2022-08-12T15:09:13.541Z,2.30
2022-08-12T15:11:54.321Z,2.10
2022-08-12T15:14:22.268Z,2.38
2022-08-12T15:16:49.960Z,2.25
2022-08-12T15:20:11.933Z,2.40
2022-08-12T15:22:37.685Z,2.30
2022-08-12T15:24:52.220Z,2.20
2022-08-12T15:27:22.151Z,2.35
2022-08-12T15:29:52.398Z,2.35
2022-08-12T15:32:20.315Z,2.28
2022-08-12T15:35:03.063Z,2.22
2022-08-12T15:38:09.369Z,2.42
2022-08-12T15:40:30.128Z,2.30
2022-08-12T15:43:03.842Z,2.30
2022-08-12T15:45:33.538Z,2.50
2022-08-12T15:48:16.199Z,2.10
2022-08-12T15:50:53.020Z,2.40
2022-08-12T15:53:53.232Z,2.13
2022-08-12T15:56:29.140Z,2.38
2022-08-12T15:59:00.543Z,2.50
2022-08-12T16:01:35.042Z,2.42
2022-08-12T16:04:05.326Z,2.00
2022-08-12T16:09:55.901Z,2.20
2022-08-12T16:12:12.312Z,2.20
2022-08-12T16:14:41.789Z,2.00
2022-08-12T16:17:15.611Z,1.90
2022-08-12T16:20:03.921Z,2.50
2022-08-12T16:22:29.901Z,2.20
2022-08-12T16:24:57.131Z,2.17
2022-08-12T16:27:25.578Z,2.45
2022-08-12T16:29:57.418Z,2.40
2022-08-12T16:32:31.836Z,2.20
2022-08-12T16:35:01.437Z,2.20
2022-08-12T16:37:32.590Z,2.47
2022-08-12T16:40:18.881Z,2.20
2022-08-12T16:42:54.106Z,2.35
2022-08-12T16:45:32.334Z,2.30
2022-08-12T16:48:35.482Z,2.28
2022-08-12T16:51:09.422Z,1.90
2022-08-12T16:53:43.905Z,1.90
2022-08-12T16:56:16.787Z,2.30
2022-08-12T16:58:44.558Z,2.03
2022-08-12T17:01:15.600Z,2.47
2022-08-12T17:03:52.016Z,2.50
2022-08-12T17:06:27.784Z,2.25
2022-08-12T17:09:02.973Z,2.58
2022-08-12T17:11:31.258Z,2.17
2022-08-12T17:13:59.483Z,2.45
2022-08-12T17:16:29.929Z,2.30
2022-08-12T17:19:03.075Z,2.33
2022-08-12T17:21:41.130Z,2.30
2022-08-12T17:24:22.414Z,2.15
2022-08-12T17:26:54.040Z,2.45
2022-08-12T17:29:31.978Z,2.45
2022-08-12T17:32:11.069Z,2.78
2022-08-12T17:34:57.019Z,2.40
2022-08-12T17:37:24.104Z,2.13
2022-08-12T17:40:14.900Z,2.33
2022-08-12T17:42:38.548Z,2.10
2022-08-12T17:45:17.484Z,2.20
2022-08-12T17:48:04.599Z,2.17
2022-08-12T17:50:35.934Z,2.42
2022-08-12T17:53:04.604Z,2.35
2022-08-12T17:55:43.690Z,2.70
2022-08-12T17:58:37.453Z,2.45
2022-08-12T18:01:10.984Z,2.60
2022-08-12T18:03:58.072Z,2.08
2022-08-12T18:06:28.127Z,2.40
2022-08-12T18:08:56.922Z,2.83
2022-08-12T18:12:04.306Z,2.55
2022-08-12T18:14:37.063Z,2.00
2022-08-12T18:17:08.876Z,2.08
2022-08-12T18:20:04.974Z,2.75
2022-08-12T18:22:39.417Z,2.08
2022-08-12T18:26:12.715Z,2.30
2022-08-12T18:28:15.145Z,2.30
2022-08-12T18:30:52.265Z,2.33
2022-08-12T18:33:25.152Z,2.40
2022-08-12T18:35:55.753Z,2.47
2022-08-12T18:38:27.917Z,2.28
2022-08-12T18:41:21.697Z,2.67
2022-08-12T18:44:02.472Z,2.40
2022-08-12T18:46:55.821Z,2.53
2022-08-12T18:49:39.407Z,2.70
2022-08-12T18:52:11.706Z,2.50
2022-08-12T18:54:53.956Z,2.40
2022-08-12T18:58:06.468Z,2.83
2022-08-12T19:00:18.813Z,2.60
2022-08-12T19:02:55.763Z,2.67
2022-08-12T19:05:54.148Z,2.58
2022-08-12T19:08:12.719Z,2.40
2022-08-12T19:10:50.423Z,2.45
2022-08-12T19:13:42.945Z,2.40
2022-08-12T19:16:11.161Z,2.45
2022-08-12T19:18:44.765Z,2.88
2022-08-12T19:21:16.253Z,2.40
2022-08-12T19:24:04.660Z,2.45
2022-08-12T19:26:34.472Z,3.50
2022-08-12T19:29:04.982Z,3.03
2022-08-12T19:31:56.890Z,4.90
2022-08-12T19:37:38.553Z,2.55
2022-08-12T19:40:33.153Z,2.80
2022-08-12T19:43:17.856Z,2.38
2022-08-12T19:45:56.775Z,2.78
2022-08-12T19:48:30.457Z,2.60
2022-08-12T19:51:08.664Z,2.58
2022-08-12T19:53:56.819Z,2.40
2022-08-12T19:56:25.150Z,2.60
2022-08-12T19:58:52.599Z,2.90
2022-08-12T20:06:06.055Z,3.00
2022-08-12T20:08:36.517Z,2.35
2022-08-12T20:12:09.194Z,2.90
2022-08-12T20:14:00.599Z,2.88
2022-08-12T20:16:51.088Z,2.65
2022-08-12T20:19:17.688Z,3.13
2022-08-12T20:21:45.050Z,2.97
2022-08-12T20:24:14.082Z,2.78
2022-08-12T20:26:42.502Z,2.80
2022-08-12T20:29:13.542Z,3.67
2022-08-12T20:31:41.433Z,3.00
2022-08-12T20:34:12.487Z,3.30
2022-08-12T20:36:44.818Z,2.90
2022-08-12T20:39:33.775Z,2.85
2022-08-12T20:42:07.586Z,3.47
2022-08-12T20:44:40.185Z,2.95
2022-08-12T20:47:18.110Z,3.40
2022-08-12T20:49:54.837Z,3.17
2022-08-12T20:52:25.494Z,3.05
2022-08-12T20:54:57.988Z,3.42
2022-08-12T20:57:25.945Z,3.03
2022-08-12T21:00:15.382Z,2.85
2022-08-12T21:02:47.133Z,3.70
2022-08-12T21:06:09.902Z,3.70
2022-08-12T21:08:26.401Z,3.00
2022-08-12T21:10:55.418Z,2.90
2022-08-12T21:13:27.078Z,3.00
2022-08-12T21:15:59.723Z,3.75
2022-08-12T21:18:29.080Z,3.00
2022-08-12T21:20:58.882Z,3.42
2022-08-12T21:23:30.816Z,3.40
2022-08-12T21:26:06.088Z,3.45
2022-08-12T21:28:38.661Z,3.20
2022-08-12T21:32:38.077Z,3.38
2022-08-12T21:34:07.620Z,3.20
2022-08-12T21:36:39.870Z,3.38
2022-08-12T21:39:30.521Z,3.38
2022-08-12T21:42:08.588Z,3.75
2022-08-12T21:45:46.020Z,3.42
2022-08-12T21:47:25.927Z,3.75
2022-08-12T21:50:04.018Z,3.40
2022-08-12T21:52:36.822Z,3.58
2022-08-12T21:55:18.682Z,3.55
2022-08-12T21:57:53.179Z,3.80
2022-08-12T22:00:32.086Z,4.00
2022-08-12T22:04:04.447Z,3.70
2022-08-12T22:06:30.985Z,3.63
2022-08-12T22:09:16.621Z,3.65
2022-08-12T22:11:56.810Z,3.80
2022-08-12T22:14:29.649Z,4.10
2022-08-12T22:16:58.688Z,3.97
2022-08-12T22:19:27.748Z,3.90
2022-08-12T22:21:58.408Z,3.85
2022-08-12T22:24:30.560Z,4.18
2022-08-12T22:27:22.873Z,4.00
2022-08-12T22:30:16.954Z,4.03
2022-08-12T22:32:51.291Z,3.88
2022-08-12T22:35:56.575Z,4.18
2022-08-12T22:38:26.485Z,3.90
2022-08-12T22:41:06.400Z,3.90
2022-08-12T22:44:01.182Z,3.80
2022-08-12T22:46:37.233Z,4.28
2022-08-12T22:49:06.534Z,4.15
2022-08-12T22:51:42.894Z,4.30
2022-08-12T22:54:35.252Z,4.07
2022-08-12T22:57:05.628Z,3.92
2022-08-12T22:59:55.866Z,4.15
2022-08-12T23:02:30.119Z,3.95
2022-08-12T23:04:58.539Z,4.63
2022-08-12T23:07:25.851Z,4.00
2022-08-12T23:09:54.713Z,4.53
2022-08-12T23:12:46.463Z,3.90
2022-08-12T23:15:14.493Z,3.72
2022-08-12T23:17:41.993Z,3.72
2022-08-12T23:20:11.454Z,4.25
2022-08-12T23:23:08.744Z,4.28
2022-08-12T23:25:32.690Z,4.03
2022-08-12T23:28:31.787Z,4.90
2022-08-12T23:31:04.574Z,4.47
2022-08-12T23:34:01.349Z,3.97
2022-08-12T23:36:31.647Z,4.20
2022-08-12T23:40:14.951Z,4.30
2022-08-12T23:42:17.989Z,4.72
2022-08-12T23:44:43.902Z,4.78
2022-08-12T23:47:11.270Z,4.22
2022-08-12T23:49:58.313Z,4.55
2022-08-12T23:52:34.166Z,4.70
2022-08-12T23:55:24.759Z,4.30
2022-08-12T23:58:22.582Z,4.40
